sensor_id;sensor_type;location;lat;lon;timestamp;P1;durP1;ratioP1;P2;durP2;ratioP2
6517;SDS011;3292;48.944;9.240;2022-10-16T00:00:39;5.23;;;2.27;;
6517;SDS011;3292;48.944;9.240;2022-10-16T00:03:07;3.97;;;2.07;;
6517;SDS011;3292;48.944;9.240;2022-10-16T00:05:37;4.40;;;2.10;;
6517;SDS011;3292;48.944;9.240;2022-10-16T00:08:06;4.23;;;2.37;;
6517;SDS011;3292;48.944;9.240;2022-10-16T00:10:35;4.80;;;2.50;;
6517;SDS011;3292;48.944;9.240;2022-10-16T00:13:02;2.50;;;2.30;;
6517;SDS011;3292;48.944;9.240;2022-10-16T00:15:29;3.10;;;2.80;;
6517;SDS011;3292;48.944;9.240;2022-10-16T00:17:56;3.37;;;2.67;;
6517;SDS011;3292;48.944;9.240;2022-10-16T00:20:23;3.93;;;2.23;;
6517;SDS011;3292;48.944;9.240;2022-10-16T00:22:50;4.20;;;2.27;;
6517;SDS011;3292;48.944;9.240;2022-10-16T00:25:16;2.53;;;2.30;;
6517;SDS011;3292;48.944;9.240;2022-10-16T00:27:45;3.00;;;2.50;;
6517;SDS011;3292;48.944;9.240;2022-10-16T00:30:11;3.17;;;2.20;;
6517;SDS011;3292;48.944;9.240;2022-10-16T00:32:38;4.80;;;2.20;;
6517;SDS011;3292;48.944;9.240;2022-10-16T00:35:05;6.20;;;2.53;;
6517;SDS011;3292;48.944;9.240;2022-10-16T00:37:32;4.50;;;2.90;;
6517;SDS011;3292;48.944;9.240;2022-10-16T00:39:59;4.43;;;2.33;;
6517;SDS011;3292;48.944;9.240;2022-10-16T00:42:26;3.80;;;2.60;;
6517;SDS011;3292;48.944;9.240;2022-10-16T00:44:55;4.00;;;2.53;;
6517;SDS011;3292;48.944;9.240;2022-10-16T00:47:24;4.30;;;2.53;;
6517;SDS011;3292;48.944;9.240;2022-10-16T00:49:56;2.60;;;2.40;;
6517;SDS011;3292;48.944;9.240;2022-10-16T00:52:26;4.40;;;2.37;;
6517;SDS011;3292;48.944;9.240;2022-10-16T00:54:52;3.90;;;2.20;;
6517;SDS011;3292;48.944;9.240;2022-10-16T00:57:20;2.40;;;2.20;;
6517;SDS011;3292;48.944;9.240;2022-10-16T00:59:48;5.20;;;2.40;;
6517;SDS011;3292;48.944;9.240;2022-10-16T01:02:17;3.93;;;2.40;;
6517;SDS011;3292;48.944;9.240;2022-10-16T01:04:44;3.87;;;2.17;;
6517;SDS011;3292;48.944;9.240;2022-10-16T01:07:16;2.73;;;2.33;;
6517;SDS011;3292;48.944;9.240;2022-10-16T01:09:53;2.27;;;2.07;;
6517;SDS011;3292;48.944;9.240;2022-10-16T01:12:28;3.43;;;2.40;;
6517;SDS011;3292;48.944;9.240;2022-10-16T01:15:02;3.80;;;2.47;;
6517;SDS011;3292;48.944;9.240;2022-10-16T01:17:39;3.43;;;2.40;;
6517;SDS011;3292;48.944;9.240;2022-10-16T01:20:11;2.47;;;2.10;;
6517;SDS011;3292;48.944;9.240;2022-10-16T01:22:48;3.13;;;2.57;;
6517;SDS011;3292;48.944;9.240;2022-10-16T01:25:25;4.00;;;2.60;;
6517;SDS011;3292;48.944;9.240;2022-10-16T01:28:03;4.73;;;2.60;;
6517;SDS011;3292;48.944;9.240;2022-10-16T01:30:35;4.37;;;2.70;;
6517;SDS011;3292;48.944;9.240;2022-10-16T01:33:04;5.30;;;2.43;;
6517;SDS011;3292;48.944;9.240;2022-10-16T01:35:36;2.93;;;2.53;;
6517;SDS011;3292;48.944;9.240;2022-10-16T01:38:07;4.40;;;2.60;;
6517;SDS011;3292;48.944;9.240;2022-10-16T01:40:39;3.10;;;2.40;;
6517;SDS011;3292;48.944;9.240;2022-10-16T01:43:12;4.47;;;2.17;;
6517;SDS011;3292;48.944;9.240;2022-10-16T01:45:42;2.37;;;1.90;;
6517;SDS011;3292;48.944;9.240;2022-10-16T01:48:10;4.70;;;2.30;;
6517;SDS011;3292;48.944;9.240;2022-10-16T01:50:39;4.43;;;2.53;;
6517;SDS011;3292;48.944;9.240;2022-10-16T01:53:09;2.93;;;2.57;;
6517;SDS011;3292;48.944;9.240;2022-10-16T01:55:40;3.37;;;2.80;;
6517;SDS011;3292;48.944;9.240;2022-10-16T01:58:11;4.00;;;2.70;;
6517;SDS011;3292;48.944;9.240;2022-10-16T02:00:39;5.00;;;2.27;;
6517;SDS011;3292;48.944;9.240;2022-10-16T02:03:09;4.07;;;2.47;;
6517;SDS011;3292;48.944;9.240;2022-10-16T02:05:39;2.87;;;2.50;;
6517;SDS011;3292;48.944;9.240;2022-10-16T02:08:08;4.03;;;2.23;;
6517;SDS011;3292;48.944;9.240;2022-10-16T02:10:35;5.33;;;2.40;;
6517;SDS011;3292;48.944;9.240;2022-10-16T02:13:06;3.87;;;2.43;;
6517;SDS011;3292;48.944;9.240;2022-10-16T02:15:37;4.63;;;2.60;;
6517;SDS011;3292;48.944;9.240;2022-10-16T02:18:04;3.83;;;2.77;;
6517;SDS011;3292;48.944;9.240;2022-10-16T02:20:33;4.63;;;2.30;;
6517;SDS011;3292;48.944;9.240;2022-10-16T02:23:04;3.50;;;2.57;;
6517;SDS011;3292;48.944;9.240;2022-10-16T02:25:39;3.27;;;2.60;;
6517;SDS011;3292;48.944;9.240;2022-10-16T02:28:11;2.50;;;2.30;;
6517;SDS011;3292;48.944;9.240;2022-10-16T02:30:44;4.10;;;2.90;;
6517;SDS011;3292;48.944;9.240;2022-10-16T02:33:15;3.90;;;2.70;;
6517;SDS011;3292;48.944;9.240;2022-10-16T02:35:44;3.60;;;2.43;;
6517;SDS011;3292;48.944;9.240;2022-10-16T02:38:13;3.43;;;2.33;;
6517;SDS011;3292;48.944;9.240;2022-10-16T02:40:41;2.97;;;2.30;;
6517;SDS011;3292;48.944;9.240;2022-10-16T02:43:08;3.63;;;2.33;;
6517;SDS011;3292;48.944;9.240;2022-10-16T02:45:36;2.53;;;2.20;;
6517;SDS011;3292;48.944;9.240;2022-10-16T02:48:05;2.67;;;2.07;;
6517;SDS011;3292;48.944;9.240;2022-10-16T02:50:32;2.20;;;1.90;;
6517;SDS011;3292;48.944;9.240;2022-10-16T02:52:59;2.30;;;2.10;;
6517;SDS011;3292;48.944;9.240;2022-10-16T02:55:26;6.30;;;2.20;;
6517;SDS011;3292;48.944;9.240;2022-10-16T02:57:53;3.87;;;2.37;;
6517;SDS011;3292;48.944;9.240;2022-10-16T03:00:20;3.57;;;2.60;;
6517;SDS011;3292;48.944;9.240;2022-10-16T03:02:47;3.83;;;2.60;;
6517;SDS011;3292;48.944;9.240;2022-10-16T03:05:16;2.87;;;2.20;;
6517;SDS011;3292;48.944;9.240;2022-10-16T03:07:42;3.03;;;2.20;;
6517;SDS011;3292;48.944;9.240;2022-10-16T03:10:09;2.33;;;2.13;;
6517;SDS011;3292;48.944;9.240;2022-10-16T03:12:36;5.23;;;2.43;;
6517;SDS011;3292;48.944;9.240;2022-10-16T03:15:03;2.63;;;2.43;;
6517;SDS011;3292;48.944;9.240;2022-10-16T03:17:32;2.63;;;2.30;;
6517;SDS011;3292;48.944;9.240;2022-10-16T03:19:58;4.53;;;2.50;;
6517;SDS011;3292;48.944;9.240;2022-10-16T03:22:27;3.27;;;2.20;;
6517;SDS011;3292;48.944;9.240;2022-10-16T03:24:53;4.27;;;2.20;;
6517;SDS011;3292;48.944;9.240;2022-10-16T03:27:20;3.10;;;1.90;;
6517;SDS011;3292;48.944;9.240;2022-10-16T03:29:47;4.40;;;2.67;;
6517;SDS011;3292;48.944;9.240;2022-10-16T03:32:14;3.87;;;2.20;;
6517;SDS011;3292;48.944;9.240;2022-10-16T03:34:40;3.80;;;2.10;;
6517;SDS011;3292;48.944;9.240;2022-10-16T03:37:07;2.67;;;2.07;;
6517;SDS011;3292;48.944;9.240;2022-10-16T03:39:35;5.30;;;2.60;;
6517;SDS011;3292;48.944;9.240;2022-10-16T03:42:02;2.37;;;2.17;;
6517;SDS011;3292;48.944;9.240;2022-10-16T03:44:29;2.93;;;2.30;;
6517;SDS011;3292;48.944;9.240;2022-10-16T03:46:56;2.07;;;1.97;;
6517;SDS011;3292;48.944;9.240;2022-10-16T03:49:22;2.17;;;2.07;;
6517;SDS011;3292;48.944;9.240;2022-10-16T03:51:49;5.00;;;2.70;;
6517;SDS011;3292;48.944;9.240;2022-10-16T03:54:16;2.90;;;2.10;;
6517;SDS011;3292;48.944;9.240;2022-10-16T03:56:44;3.77;;;2.20;;
6517;SDS011;3292;48.944;9.240;2022-10-16T03:59:11;1.90;;;1.80;;
6517;SDS011;3292;48.944;9.240;2022-10-16T04:01:38;2.67;;;2.30;;
6517;SDS011;3292;48.944;9.240;2022-10-16T04:04:05;3.10;;;2.40;;
6517;SDS011;3292;48.944;9.240;2022-10-16T04:06:31;4.60;;;2.60;;
6517;SDS011;3292;48.944;9.240;2022-10-16T04:08:58;3.10;;;2.20;;
6517;SDS011;3292;48.944;9.240;2022-10-16T04:11:25;3.53;;;2.37;;
6517;SDS011;3292;48.944;9.240;2022-10-16T04:13:53;5.93;;;2.70;;
6517;SDS011;3292;48.944;9.240;2022-10-16T04:16:20;2.80;;;2.10;;
6517;SDS011;3292;48.944;9.240;2022-10-16T04:18:47;2.27;;;2.10;;
6517;SDS011;3292;48.944;9.240;2022-10-16T04:21:14;2.50;;;2.30;;
6517;SDS011;3292;48.944;9.240;2022-10-16T04:23:41;2.83;;;2.30;;
6517;SDS011;3292;48.944;9.240;2022-10-16T04:26:08;3.03;;;2.10;;
6517;SDS011;3292;48.944;9.240;2022-10-16T04:28:35;2.00;;;1.90;;
6517;SDS011;3292;48.944;9.240;2022-10-16T04:31:04;3.00;;;2.00;;
6517;SDS011;3292;48.944;9.240;2022-10-16T04:33:32;2.67;;;2.20;;
6517;SDS011;3292;48.944;9.240;2022-10-16T04:35:59;2.90;;;2.60;;
6517;SDS011;3292;48.944;9.240;2022-10-16T04:38:26;2.30;;;2.10;;
6517;SDS011;3292;48.944;9.240;2022-10-16T04:40:53;3.60;;;2.30;;
6517;SDS011;3292;48.944;9.240;2022-10-16T04:43:20;2.37;;;2.10;;
6517;SDS011;3292;48.944;9.240;2022-10-16T04:45:48;3.40;;;2.27;;
6517;SDS011;3292;48.944;9.240;2022-10-16T04:48:17;2.27;;;2.03;;
6517;SDS011;3292;48.944;9.240;2022-10-16T04:50:44;3.73;;;2.03;;
6517;SDS011;3292;48.944;9.240;2022-10-16T04:53:11;2.40;;;2.23;;
6517;SDS011;3292;48.944;9.240;2022-10-16T04:55:37;2.70;;;2.50;;
6517;SDS011;3292;48.944;9.240;2022-10-16T04:58:04;2.83;;;2.40;;
6517;SDS011;3292;48.944;9.240;2022-10-16T05:00:31;2.27;;;2.07;;
6517;SDS011;3292;48.944;9.240;2022-10-16T05:02:58;2.83;;;2.30;;
6517;SDS011;3292;48.944;9.240;2022-10-16T05:05:27;3.23;;;2.37;;
6517;SDS011;3292;48.944;9.240;2022-10-16T05:07:54;3.33;;;2.50;;
6517;SDS011;3292;48.944;9.240;2022-10-16T05:10:20;3.00;;;2.50;;
6517;SDS011;3292;48.944;9.240;2022-10-16T05:12:47;3.73;;;3.00;;
6517;SDS011;3292;48.944;9.240;2022-10-16T05:15:14;10.97;;;7.33;;
6517;SDS011;3292;48.944;9.240;2022-10-16T05:17:41;13.10;;;7.83;;
6517;SDS011;3292;48.944;9.240;2022-10-16T05:20:08;10.13;;;8.30;;
6517;SDS011;3292;48.944;9.240;2022-10-16T05:22:37;5.97;;;3.80;;
6517;SDS011;3292;48.944;9.240;2022-10-16T05:25:04;5.00;;;3.87;;
6517;SDS011;3292;48.944;9.240;2022-10-16T05:27:32;5.43;;;3.47;;
6517;SDS011;3292;48.944;9.240;2022-10-16T05:29:59;5.30;;;3.40;;
6517;SDS011;3292;48.944;9.240;2022-10-16T05:32:25;3.93;;;3.40;;
6517;SDS011;3292;48.944;9.240;2022-10-16T05:34:52;4.63;;;3.33;;
6517;SDS011;3292;48.944;9.240;2022-10-16T05:37:19;5.57;;;3.20;;
6517;SDS011;3292;48.944;9.240;2022-10-16T05:39:47;3.40;;;3.20;;
6517;SDS011;3292;48.944;9.240;2022-10-16T05:42:14;3.57;;;2.57;;
6517;SDS011;3292;48.944;9.240;2022-10-16T05:44:41;5.57;;;2.77;;
6517;SDS011;3292;48.944;9.240;2022-10-16T05:47:08;4.17;;;2.40;;
6517;SDS011;3292;48.944;9.240;2022-10-16T05:49:35;3.13;;;2.83;;
6517;SDS011;3292;48.944;9.240;2022-10-16T05:52:02;3.03;;;2.50;;
6517;SDS011;3292;48.944;9.240;2022-10-16T05:54:29;2.80;;;2.30;;
6517;SDS011;3292;48.944;9.240;2022-10-16T05:56:57;6.33;;;3.00;;
6517;SDS011;3292;48.944;9.240;2022-10-16T05:59:24;4.10;;;3.10;;
6517;SDS011;3292;48.944;9.240;2022-10-16T06:01:51;5.27;;;3.23;;
6517;SDS011;3292;48.944;9.240;2022-10-16T06:04:18;4.10;;;3.07;;
6517;SDS011;3292;48.944;9.240;2022-10-16T06:06:45;3.87;;;2.50;;
6517;SDS011;3292;48.944;9.240;2022-10-16T06:09:12;2.73;;;2.37;;
6517;SDS011;3292;48.944;9.240;2022-10-16T06:11:38;3.77;;;2.57;;
6517;SDS011;3292;48.944;9.240;2022-10-16T06:14:07;2.53;;;2.33;;
6517;SDS011;3292;48.944;9.240;2022-10-16T06:16:34;7.03;;;2.53;;
6517;SDS011;3292;48.944;9.240;2022-10-16T06:19:03;2.70;;;2.50;;
6517;SDS011;3292;48.944;9.240;2022-10-16T06:21:31;3.20;;;2.33;;
6517;SDS011;3292;48.944;9.240;2022-10-16T06:23:58;2.80;;;2.60;;
6517;SDS011;3292;48.944;9.240;2022-10-16T06:26:26;6.10;;;2.80;;
6517;SDS011;3292;48.944;9.240;2022-10-16T06:28:54;2.50;;;2.30;;
6517;SDS011;3292;48.944;9.240;2022-10-16T06:31:23;2.83;;;2.63;;
6517;SDS011;3292;48.944;9.240;2022-10-16T06:33:52;4.33;;;2.77;;
6517;SDS011;3292;48.944;9.240;2022-10-16T06:36:20;2.83;;;2.63;;
6517;SDS011;3292;48.944;9.240;2022-10-16T06:38:47;4.93;;;2.80;;
6517;SDS011;3292;48.944;9.240;2022-10-16T06:41:14;6.80;;;3.07;;
6517;SDS011;3292;48.944;9.240;2022-10-16T06:43:42;4.43;;;2.30;;
6517;SDS011;3292;48.944;9.240;2022-10-16T06:46:10;6.33;;;2.80;;
6517;SDS011;3292;48.944;9.240;2022-10-16T06:48:39;2.53;;;2.30;;
6517;SDS011;3292;48.944;9.240;2022-10-16T06:51:08;4.03;;;2.43;;
6517;SDS011;3292;48.944;9.240;2022-10-16T06:53:37;5.73;;;2.40;;
6517;SDS011;3292;48.944;9.240;2022-10-16T06:56:09;3.93;;;2.20;;
6517;SDS011;3292;48.944;9.240;2022-10-16T06:58:37;2.87;;;2.60;;
6517;SDS011;3292;48.944;9.240;2022-10-16T07:01:08;3.70;;;2.83;;
6517;SDS011;3292;48.944;9.240;2022-10-16T07:03:35;2.97;;;2.73;;
6517;SDS011;3292;48.944;9.240;2022-10-16T07:06:05;6.30;;;2.77;;
6517;SDS011;3292;48.944;9.240;2022-10-16T07:08:33;4.67;;;2.30;;
6517;SDS011;3292;48.944;9.240;2022-10-16T07:11:01;3.40;;;2.07;;
6517;SDS011;3292;48.944;9.240;2022-10-16T07:13:29;4.57;;;2.30;;
6517;SDS011;3292;48.944;9.240;2022-10-16T07:16:03;2.80;;;2.60;;
6517;SDS011;3292;48.944;9.240;2022-10-16T07:18:30;3.63;;;2.60;;
6517;SDS011;3292;48.944;9.240;2022-10-16T07:21:02;4.43;;;3.90;;
6517;SDS011;3292;48.944;9.240;2022-10-16T07:23:31;4.10;;;2.90;;
6517;SDS011;3292;48.944;9.240;2022-10-16T07:25:59;4.33;;;3.27;;
6517;SDS011;3292;48.944;9.240;2022-10-16T07:28:25;5.40;;;2.80;;
6517;SDS011;3292;48.944;9.240;2022-10-16T07:30:53;4.60;;;3.60;;
6517;SDS011;3292;48.944;9.240;2022-10-16T07:33:19;9.13;;;5.90;;
6517;SDS011;3292;48.944;9.240;2022-10-16T07:35:47;7.33;;;5.30;;
6517;SDS011;3292;48.944;9.240;2022-10-16T07:38:16;6.13;;;4.30;;
6517;SDS011;3292;48.944;9.240;2022-10-16T07:40:43;6.67;;;3.40;;
6517;SDS011;3292;48.944;9.240;2022-10-16T07:43:10;5.77;;;3.17;;
6517;SDS011;3292;48.944;9.240;2022-10-16T07:45:46;4.43;;;3.77;;
6517;SDS011;3292;48.944;9.240;2022-10-16T07:48:14;3.53;;;2.50;;
6517;SDS011;3292;48.944;9.240;2022-10-16T07:50:41;6.00;;;4.30;;
6517;SDS011;3292;48.944;9.240;2022-10-16T07:53:08;9.60;;;4.00;;
6517;SDS011;3292;48.944;9.240;2022-10-16T07:55:37;4.97;;;4.17;;
6517;SDS011;3292;48.944;9.240;2022-10-16T07:58:04;5.00;;;3.50;;
6517;SDS011;3292;48.944;9.240;2022-10-16T08:00:32;4.60;;;2.63;;
6517;SDS011;3292;48.944;9.240;2022-10-16T08:02:59;4.07;;;2.90;;
6517;SDS011;3292;48.944;9.240;2022-10-16T08:05:26;2.57;;;2.37;;
6517;SDS011;3292;48.944;9.240;2022-10-16T08:07:53;2.93;;;2.47;;
6517;SDS011;3292;48.944;9.240;2022-10-16T08:10:21;2.90;;;2.43;;
6517;SDS011;3292;48.944;9.240;2022-10-16T08:12:51;4.37;;;2.60;;
6517;SDS011;3292;48.944;9.240;2022-10-16T08:15:19;2.73;;;2.20;;
6517;SDS011;3292;48.944;9.240;2022-10-16T08:17:53;5.20;;;2.60;;
6517;SDS011;3292;48.944;9.240;2022-10-16T08:20:21;2.23;;;2.03;;
6517;SDS011;3292;48.944;9.240;2022-10-16T08:22:48;3.97;;;2.10;;
6517;SDS011;3292;48.944;9.240;2022-10-16T08:25:14;6.47;;;2.20;;
6517;SDS011;3292;48.944;9.240;2022-10-16T08:27:41;3.07;;;1.80;;
6517;SDS011;3292;48.944;9.240;2022-10-16T08:30:11;3.20;;;1.93;;
6517;SDS011;3292;48.944;9.240;2022-10-16T08:32:38;3.10;;;1.90;;
6517;SDS011;3292;48.944;9.240;2022-10-16T08:35:06;3.50;;;2.20;;
6517;SDS011;3292;48.944;9.240;2022-10-16T08:37:34;4.77;;;2.10;;
6517;SDS011;3292;48.944;9.240;2022-10-16T08:40:01;4.17;;;2.07;;
6517;SDS011;3292;48.944;9.240;2022-10-16T08:42:30;7.57;;;2.10;;
6517;SDS011;3292;48.944;9.240;2022-10-16T08:45:15;2.13;;;1.90;;
6517;SDS011;3292;48.944;9.240;2022-10-16T08:47:58;2.47;;;2.10;;
6517;SDS011;3292;48.944;9.240;2022-10-16T08:50:36;4.50;;;2.33;;
6517;SDS011;3292;48.944;9.240;2022-10-16T08:53:05;4.37;;;2.10;;
6517;SDS011;3292;48.944;9.240;2022-10-16T08:55:37;4.53;;;2.00;;
6517;SDS011;3292;48.944;9.240;2022-10-16T08:58:10;3.03;;;2.07;;
6517;SDS011;3292;48.944;9.240;2022-10-16T09:00:41;2.00;;;1.77;;
6517;SDS011;3292;48.944;9.240;2022-10-16T09:03:14;2.67;;;2.40;;
6517;SDS011;3292;48.944;9.240;2022-10-16T09:06:07;3.37;;;2.37;;
6517;SDS011;3292;48.944;9.240;2022-10-16T09:08:46;4.87;;;2.43;;
6517;SDS011;3292;48.944;9.240;2022-10-16T09:11:27;4.73;;;2.73;;
6517;SDS011;3292;48.944;9.240;2022-10-16T09:14:03;4.93;;;2.90;;
6517;SDS011;3292;48.944;9.240;2022-10-16T09:16:43;6.40;;;3.07;;
6517;SDS011;3292;48.944;9.240;2022-10-16T09:19:16;5.37;;;2.97;;
6517;SDS011;3292;48.944;9.240;2022-10-16T09:21:49;3.97;;;3.57;;
6517;SDS011;3292;48.944;9.240;2022-10-16T09:24:18;4.87;;;3.33;;
6517;SDS011;3292;48.944;9.240;2022-10-16T09:26:48;6.20;;;4.10;;
6517;SDS011;3292;48.944;9.240;2022-10-16T09:29:17;4.60;;;4.10;;
6517;SDS011;3292;48.944;9.240;2022-10-16T09:31:47;4.07;;;3.63;;
6517;SDS011;3292;48.944;9.240;2022-10-16T09:34:17;3.30;;;3.00;;
6517;SDS011;3292;48.944;9.240;2022-10-16T09:36:51;4.60;;;2.40;;
6517;SDS011;3292;48.944;9.240;2022-10-16T09:39:18;3.73;;;2.27;;
6517;SDS011;3292;48.944;9.240;2022-10-16T09:41:45;4.17;;;2.23;;
6517;SDS011;3292;48.944;9.240;2022-10-16T09:44:16;4.20;;;2.20;;
6517;SDS011;3292;48.944;9.240;2022-10-16T09:46:49;3.83;;;2.20;;
6517;SDS011;3292;48.944;9.240;2022-10-16T09:49:20;2.70;;;2.50;;
6517;SDS011;3292;48.944;9.240;2022-10-16T09:51:49;2.37;;;2.07;;
6517;SDS011;3292;48.944;9.240;2022-10-16T09:54:19;2.43;;;2.23;;
6517;SDS011;3292;48.944;9.240;2022-10-16T09:56:47;2.10;;;1.90;;
6517;SDS011;3292;48.944;9.240;2022-10-16T09:59:18;3.03;;;2.07;;
6517;SDS011;3292;48.944;9.240;2022-10-16T10:01:46;2.90;;;1.90;;
6517;SDS011;3292;48.944;9.240;2022-10-16T10:04:16;2.20;;;2.00;;
6517;SDS011;3292;48.944;9.240;2022-10-16T10:06:45;3.57;;;2.13;;
6517;SDS011;3292;48.944;9.240;2022-10-16T10:09:17;2.40;;;2.00;;
6517;SDS011;3292;48.944;9.240;2022-10-16T10:11:50;3.23;;;2.00;;
6517;SDS011;3292;48.944;9.240;2022-10-16T10:14:20;2.13;;;1.93;;
6517;SDS011;3292;48.944;9.240;2022-10-16T10:17:02;4.03;;;2.03;;
6517;SDS011;3292;48.944;9.240;2022-10-16T10:19:40;4.83;;;2.83;;
6517;SDS011;3292;48.944;9.240;2022-10-16T10:22:13;3.07;;;2.70;;
6517;SDS011;3292;48.944;9.240;2022-10-16T10:25:00;4.70;;;3.10;;
6517;SDS011;3292;48.944;9.240;2022-10-16T10:27:53;2.10;;;1.70;;
6517;SDS011;3292;48.944;9.240;2022-10-16T10:30:30;3.10;;;2.10;;
6517;SDS011;3292;48.944;9.240;2022-10-16T10:33:11;3.40;;;1.87;;
6517;SDS011;3292;48.944;9.240;2022-10-16T10:35:46;3.87;;;2.10;;
6517;SDS011;3292;48.944;9.240;2022-10-16T10:38:23;5.00;;;3.87;;
6517;SDS011;3292;48.944;9.240;2022-10-16T10:40:58;5.67;;;2.90;;
6517;SDS011;3292;48.944;9.240;2022-10-16T10:43:42;4.53;;;2.13;;
6517;SDS011;3292;48.944;9.240;2022-10-16T10:46:23;3.83;;;2.30;;
6517;SDS011;3292;48.944;9.240;2022-10-16T10:49:03;4.53;;;2.20;;
6517;SDS011;3292;48.944;9.240;2022-10-16T10:51:44;5.07;;;2.20;;
6517;SDS011;3292;48.944;9.240;2022-10-16T10:54:22;4.67;;;2.03;;
6517;SDS011;3292;48.944;9.240;2022-10-16T10:56:56;3.53;;;1.80;;
6517;SDS011;3292;48.944;9.240;2022-10-16T10:59:29;2.80;;;1.83;;
6517;SDS011;3292;48.944;9.240;2022-10-16T11:02:09;2.97;;;1.83;;
6517;SDS011;3292;48.944;9.240;2022-10-16T11:04:53;2.17;;;1.80;;
6517;SDS011;3292;48.944;9.240;2022-10-16T11:07:32;3.17;;;1.90;;
6517;SDS011;3292;48.944;9.240;2022-10-16T11:10:03;3.70;;;2.00;;
6517;SDS011;3292;48.944;9.240;2022-10-16T11:12:35;2.70;;;1.93;;
6517;SDS011;3292;48.944;9.240;2022-10-16T11:15:10;3.77;;;1.93;;
6517;SDS011;3292;48.944;9.240;2022-10-16T11:17:41;3.00;;;1.80;;
6517;SDS011;3292;48.944;9.240;2022-10-16T11:20:16;4.23;;;1.87;;
6517;SDS011;3292;48.944;9.240;2022-10-16T11:22:47;2.10;;;1.90;;
6517;SDS011;3292;48.944;9.240;2022-10-16T11:25:18;1.80;;;1.70;;
6517;SDS011;3292;48.944;9.240;2022-10-16T11:27:50;6.13;;;2.10;;
6517;SDS011;3292;48.944;9.240;2022-10-16T11:30:21;3.28;;;1.80;;
6517;SDS011;3292;48.944;9.240;2022-10-16T11:32:56;8.27;;;2.08;;
6517;SDS011;3292;48.944;9.240;2022-10-16T11:35:36;2.50;;;1.90;;
6517;SDS011;3292;48.944;9.240;2022-10-16T11:38:09;2.70;;;1.70;;
6517;SDS011;3292;48.944;9.240;2022-10-16T11:40:41;2.42;;;1.52;;
6517;SDS011;3292;48.944;9.240;2022-10-16T11:43:13;4.38;;;2.00;;
6517;SDS011;3292;48.944;9.240;2022-10-16T11:45:47;2.28;;;1.85;;
6517;SDS011;3292;48.944;9.240;2022-10-16T11:48:20;1.98;;;1.88;;
6517;SDS011;3292;48.944;9.240;2022-10-16T11:50:54;3.40;;;1.83;;
6517;SDS011;3292;48.944;9.240;2022-10-16T11:53:24;6.43;;;1.92;;
6517;SDS011;3292;48.944;9.240;2022-10-16T11:56:02;2.95;;;1.90;;
6517;SDS011;3292;48.944;9.240;2022-10-16T11:58:31;1.50;;;1.40;;
6517;SDS011;3292;48.944;9.240;2022-10-16T12:01:03;1.90;;;1.75;;
6517;SDS011;3292;48.944;9.240;2022-10-16T12:03:43;3.75;;;1.77;;
6517;SDS011;3292;48.944;9.240;2022-10-16T12:06:19;2.72;;;2.00;;
6517;SDS011;3292;48.944;9.240;2022-10-16T12:08:54;2.28;;;1.83;;
6517;SDS011;3292;48.944;9.240;2022-10-16T12:11:24;2.85;;;1.75;;
6517;SDS011;3292;48.944;9.240;2022-10-16T12:16:53;3.72;;;1.85;;
6517;SDS011;3292;48.944;9.240;2022-10-16T12:19:22;6.70;;;1.83;;
6517;SDS011;3292;48.944;9.240;2022-10-16T12:21:51;3.38;;;1.75;;
6517;SDS011;3292;48.944;9.240;2022-10-16T12:24:31;1.60;;;1.50;;
6517;SDS011;3292;48.944;9.240;2022-10-16T12:27:00;2.90;;;1.70;;
6517;SDS011;3292;48.944;9.240;2022-10-16T12:29:30;2.40;;;1.70;;
6517;SDS011;3292;48.944;9.240;2022-10-16T12:32:00;1.90;;;1.70;;
6517;SDS011;3292;48.944;9.240;2022-10-16T12:34:29;1.65;;;1.55;;
6517;SDS011;3292;48.944;9.240;2022-10-16T12:37:12;2.22;;;1.67;;
6517;SDS011;3292;48.944;9.240;2022-10-16T12:39:41;3.40;;;1.58;;
6517;SDS011;3292;48.944;9.240;2022-10-16T12:42:21;2.42;;;1.75;;
6517;SDS011;3292;48.944;9.240;2022-10-16T12:44:58;1.67;;;1.40;;
6517;SDS011;3292;48.944;9.240;2022-10-16T12:47:36;1.92;;;1.73;;
6517;SDS011;3292;48.944;9.240;2022-10-16T12:52:52;1.80;;;1.70;;
6517;SDS011;3292;48.944;9.240;2022-10-16T12:55:19;2.03;;;1.67;;
6517;SDS011;3292;48.944;9.240;2022-10-16T12:57:53;2.65;;;1.70;;
6517;SDS011;3292;48.944;9.240;2022-10-16T13:00:33;2.67;;;1.80;;
6517;SDS011;3292;48.944;9.240;2022-10-16T13:03:26;1.90;;;1.60;;
6517;SDS011;3292;48.944;9.240;2022-10-16T13:06:25;3.50;;;1.80;;
6517;SDS011;3292;48.944;9.240;2022-10-16T13:09:08;3.08;;;1.70;;
6517;SDS011;3292;48.944;9.240;2022-10-16T13:11:55;2.83;;;1.65;;
6517;SDS011;3292;48.944;9.240;2022-10-16T13:14:44;1.60;;;1.50;;
6517;SDS011;3292;48.944;9.240;2022-10-16T13:17:22;3.00;;;1.70;;
6517;SDS011;3292;48.944;9.240;2022-10-16T13:19:58;3.10;;;1.40;;
6517;SDS011;3292;48.944;9.240;2022-10-16T13:22:39;1.95;;;1.70;;
6517;SDS011;3292;48.944;9.240;2022-10-16T13:25:19;2.10;;;1.58;;
6517;SDS011;3292;48.944;9.240;2022-10-16T13:27:52;2.20;;;1.70;;
6517;SDS011;3292;48.944;9.240;2022-10-16T13:30:22;4.30;;;3.03;;
6517;SDS011;3292;48.944;9.240;2022-10-16T13:32:55;2.22;;;2.00;;
6517;SDS011;3292;48.944;9.240;2022-10-16T13:35:26;1.60;;;1.50;;
6517;SDS011;3292;48.944;9.240;2022-10-16T13:40:49;3.28;;;1.65;;
6517;SDS011;3292;48.944;9.240;2022-10-16T13:43:17;2.83;;;1.70;;
6517;SDS011;3292;48.944;9.240;2022-10-16T13:45:53;3.58;;;1.80;;
6517;SDS011;3292;48.944;9.240;2022-10-16T13:48:22;3.55;;;1.88;;
6517;SDS011;3292;48.944;9.240;2022-10-16T13:50:58;4.00;;;1.80;;
6517;SDS011;3292;48.944;9.240;2022-10-16T13:53:26;2.10;;;1.70;;
6517;SDS011;3292;48.944;9.240;2022-10-16T13:55:54;2.25;;;1.80;;
6517;SDS011;3292;48.944;9.240;2022-10-16T13:58:21;1.70;;;1.60;;
6517;SDS011;3292;48.944;9.240;2022-10-16T14:00:52;3.10;;;2.03;;
6517;SDS011;3292;48.944;9.240;2022-10-16T14:03:21;1.83;;;1.73;;
6517;SDS011;3292;48.944;9.240;2022-10-16T14:05:49;1.70;;;1.60;;
6517;SDS011;3292;48.944;9.240;2022-10-16T14:08:18;2.45;;;1.60;;
6517;SDS011;3292;48.944;9.240;2022-10-16T14:10:47;2.90;;;1.80;;
6517;SDS011;3292;48.944;9.240;2022-10-16T14:13:17;1.98;;;1.77;;
6517;SDS011;3292;48.944;9.240;2022-10-16T14:15:46;3.55;;;1.63;;
6517;SDS011;3292;48.944;9.240;2022-10-16T14:18:16;1.95;;;1.77;;
6517;SDS011;3292;48.944;9.240;2022-10-16T14:20:46;2.22;;;1.80;;
6517;SDS011;3292;48.944;9.240;2022-10-16T14:23:21;1.90;;;1.80;;
6517;SDS011;3292;48.944;9.240;2022-10-16T14:25:51;2.00;;;1.80;;
6517;SDS011;3292;48.944;9.240;2022-10-16T14:28:20;2.50;;;1.90;;
6517;SDS011;3292;48.944;9.240;2022-10-16T14:30:49;2.80;;;1.70;;
6517;SDS011;3292;48.944;9.240;2022-10-16T14:33:21;2.45;;;1.83;;
6517;SDS011;3292;48.944;9.240;2022-10-16T14:35:59;2.22;;;1.60;;
6517;SDS011;3292;48.944;9.240;2022-10-16T14:38:28;4.38;;;1.90;;
6517;SDS011;3292;48.944;9.240;2022-10-16T14:40:57;4.25;;;2.00;;
6517;SDS011;3292;48.944;9.240;2022-10-16T14:43:29;3.15;;;1.90;;
6517;SDS011;3292;48.944;9.240;2022-10-16T14:45:59;2.80;;;1.90;;
6517;SDS011;3292;48.944;9.240;2022-10-16T14:48:28;1.70;;;1.60;;
6517;SDS011;3292;48.944;9.240;2022-10-16T14:50:55;2.80;;;1.80;;
6517;SDS011;3292;48.944;9.240;2022-10-16T14:53:22;4.53;;;2.00;;
6517;SDS011;3292;48.944;9.240;2022-10-16T14:55:49;2.33;;;1.80;;
6517;SDS011;3292;48.944;9.240;2022-10-16T14:58:17;2.88;;;1.80;;
6517;SDS011;3292;48.944;9.240;2022-10-16T15:00:47;1.90;;;1.70;;
6517;SDS011;3292;48.944;9.240;2022-10-16T15:03:14;2.15;;;1.73;;
6517;SDS011;3292;48.944;9.240;2022-10-16T15:05:41;3.27;;;2.10;;
6517;SDS011;3292;48.944;9.240;2022-10-16T15:08:08;3.13;;;1.73;;
6517;SDS011;3292;48.944;9.240;2022-10-16T15:10:38;2.30;;;1.87;;
6517;SDS011;3292;48.944;9.240;2022-10-16T15:13:08;4.50;;;1.90;;
6517;SDS011;3292;48.944;9.240;2022-10-16T15:15:38;5.10;;;2.10;;
6517;SDS011;3292;48.944;9.240;2022-10-16T15:18:10;3.72;;;1.80;;
6517;SDS011;3292;48.944;9.240;2022-10-16T15:20:37;3.33;;;1.90;;
6517;SDS011;3292;48.944;9.240;2022-10-16T15:23:05;3.87;;;1.80;;
6517;SDS011;3292;48.944;9.240;2022-10-16T15:25:37;4.03;;;1.90;;
6517;SDS011;3292;48.944;9.240;2022-10-16T15:28:05;3.43;;;2.00;;
6517;SDS011;3292;48.944;9.240;2022-10-16T15:30:32;3.63;;;2.10;;
6517;SDS011;3292;48.944;9.240;2022-10-16T15:33:00;3.33;;;2.17;;
6517;SDS011;3292;48.944;9.240;2022-10-16T15:35:28;3.60;;;1.90;;
6517;SDS011;3292;48.944;9.240;2022-10-16T15:37:57;4.47;;;2.03;;
6517;SDS011;3292;48.944;9.240;2022-10-16T15:40:24;2.90;;;2.03;;
6517;SDS011;3292;48.944;9.240;2022-10-16T15:42:50;3.67;;;2.10;;